sensor_id;sensor_type;location;lat;lon;timestamp;P1;durP1;ratioP1;P2;durP2;ratioP2
66478;SDS011;53294;47.912;13.526;2023-02-21T00:01:40;4.03;;;1.95;;
66478;SDS011;53294;47.912;13.526;2023-02-21T00:04:26;3.35;;;1.70;;
66478;SDS011;53294;47.912;13.526;2023-02-21T00:07:12;4.03;;;1.95;;
66478;SDS011;53294;47.912;13.526;2023-02-21T00:09:57;3.17;;;1.95;;
66478;SDS011;53294;47.912;13.526;2023-02-21T00:12:42;3.72;;;1.73;;
66478;SDS011;53294;47.912;13.526;2023-02-21T00:15:27;6.28;;;1.95;;
66478;SDS011;53294;47.912;13.526;2023-02-21T00:18:12;3.25;;;1.58;;
66478;SDS011;53294;47.912;13.526;2023-02-21T00:20:58;2.58;;;1.55;;
66478;SDS011;53294;47.912;13.526;2023-02-21T00:23:43;3.15;;;1.60;;
66478;SDS011;53294;47.912;13.526;2023-02-21T00:26:28;3.63;;;1.77;;
66478;SDS011;53294;47.912;13.526;2023-02-21T00:29:14;3.75;;;1.88;;
66478;SDS011;53294;47.912;13.526;2023-02-21T00:31:59;3.50;;;1.80;;
66478;SDS011;53294;47.912;13.526;2023-02-21T00:34:44;2.88;;;1.45;;
66478;SDS011;53294;47.912;13.526;2023-02-21T00:37:29;3.10;;;1.67;;
66478;SDS011;53294;47.912;13.526;2023-02-21T00:40:15;2.67;;;1.40;;
66478;SDS011;53294;47.912;13.526;2023-02-21T00:43:00;2.83;;;1.67;;
66478;SDS011;53294;47.912;13.526;2023-02-21T00:45:46;3.88;;;1.75;;
66478;SDS011;53294;47.912;13.526;2023-02-21T00:48:31;3.33;;;2.25;;
66478;SDS011;53294;47.912;13.526;2023-02-21T00:51:16;4.45;;;1.83;;
66478;SDS011;53294;47.912;13.526;2023-02-21T00:54:02;4.43;;;1.55;;
66478;SDS011;53294;47.912;13.526;2023-02-21T00:56:47;4.28;;;2.10;;
66478;SDS011;53294;47.912;13.526;2023-02-21T00:59:32;3.13;;;1.77;;
66478;SDS011;53294;47.912;13.526;2023-02-21T01:02:17;4.97;;;1.80;;
66478;SDS011;53294;47.912;13.526;2023-02-21T01:05:03;3.20;;;1.70;;
66478;SDS011;53294;47.912;13.526;2023-02-21T01:07:48;3.47;;;1.40;;
66478;SDS011;53294;47.912;13.526;2023-02-21T01:10:34;4.20;;;1.63;;
66478;SDS011;53294;47.912;13.526;2023-02-21T01:13:19;3.85;;;1.50;;
66478;SDS011;53294;47.912;13.526;2023-02-21T01:16:05;2.08;;;1.30;;
66478;SDS011;53294;47.912;13.526;2023-02-21T01:18:51;3.13;;;1.55;;
66478;SDS011;53294;47.912;13.526;2023-02-21T01:21:37;2.95;;;1.65;;
66478;SDS011;53294;47.912;13.526;2023-02-21T01:24:22;3.78;;;1.70;;
66478;SDS011;53294;47.912;13.526;2023-02-21T01:27:07;3.50;;;2.10;;
66478;SDS011;53294;47.912;13.526;2023-02-21T01:29:53;4.28;;;1.83;;
66478;SDS011;53294;47.912;13.526;2023-02-21T01:32:38;4.63;;;2.00;;
66478;SDS011;53294;47.912;13.526;2023-02-21T01:35:23;4.07;;;1.70;;
66478;SDS011;53294;47.912;13.526;2023-02-21T01:38:09;3.28;;;1.67;;
66478;SDS011;53294;47.912;13.526;2023-02-21T01:40:54;4.10;;;1.88;;
66478;SDS011;53294;47.912;13.526;2023-02-21T01:43:55;3.20;;;1.67;;
66478;SDS011;53294;47.912;13.526;2023-02-21T01:46:42;2.33;;;1.45;;
66478;SDS011;53294;47.912;13.526;2023-02-21T01:49:27;3.38;;;1.90;;
66478;SDS011;53294;47.912;13.526;2023-02-21T01:52:15;5.50;;;1.90;;
66478;SDS011;53294;47.912;13.526;2023-02-21T01:55:01;2.53;;;1.77;;
66478;SDS011;53294;47.912;13.526;2023-02-21T01:57:47;3.88;;;1.98;;
66478;SDS011;53294;47.912;13.526;2023-02-21T02:00:34;3.35;;;1.88;;
66478;SDS011;53294;47.912;13.526;2023-02-21T02:03:20;4.22;;;2.20;;
66478;SDS011;53294;47.912;13.526;2023-02-21T02:06:07;3.15;;;1.85;;
66478;SDS011;53294;47.912;13.526;2023-02-21T02:08:53;3.22;;;1.83;;
66478;SDS011;53294;47.912;13.526;2023-02-21T02:26:21;6.25;;;1.60;;
66478;SDS011;53294;47.912;13.526;2023-02-21T02:39:47;3.70;;;1.80;;
66478;SDS011;53294;47.912;13.526;2023-02-21T02:43:09;3.05;;;1.55;;
66478;SDS011;53294;47.912;13.526;2023-02-21T02:51:02;4.15;;;1.60;;
66478;SDS011;53294;47.912;13.526;2023-02-21T02:53:33;3.85;;;1.90;;
66478;SDS011;53294;47.912;13.526;2023-02-21T02:56:02;4.03;;;1.75;;
66478;SDS011;53294;47.912;13.526;2023-02-21T02:58:41;4.00;;;1.70;;
66478;SDS011;53294;47.912;13.526;2023-02-21T03:15:36;6.32;;;1.92;;
66478;SDS011;53294;47.912;13.526;2023-02-21T03:18:17;2.22;;;1.42;;
66478;SDS011;53294;47.912;13.526;2023-02-21T03:20:49;1.48;;;1.33;;
66478;SDS011;53294;47.912;13.526;2023-02-21T03:23:20;2.55;;;1.63;;
66478;SDS011;53294;47.912;13.526;2023-02-21T03:25:49;2.35;;;1.55;;
66478;SDS011;53294;47.912;13.526;2023-02-21T03:28:17;3.88;;;1.50;;
66478;SDS011;53294;47.912;13.526;2023-02-21T03:30:46;2.75;;;1.75;;
66478;SDS011;53294;47.912;13.526;2023-02-21T03:33:16;2.47;;;1.58;;
66478;SDS011;53294;47.912;13.526;2023-02-21T03:35:43;3.80;;;1.80;;
66478;SDS011;53294;47.912;13.526;2023-02-21T03:38:10;4.25;;;1.83;;
66478;SDS011;53294;47.912;13.526;2023-02-21T03:40:37;3.72;;;1.70;;
66478;SDS011;53294;47.912;13.526;2023-02-21T03:43:04;3.15;;;1.80;;
66478;SDS011;53294;47.912;13.526;2023-02-21T03:45:34;3.40;;;1.70;;
66478;SDS011;53294;47.912;13.526;2023-02-21T03:48:02;2.85;;;1.60;;
66478;SDS011;53294;47.912;13.526;2023-02-21T03:50:29;3.60;;;1.60;;
66478;SDS011;53294;47.912;13.526;2023-02-21T03:52:55;2.42;;;1.40;;
66478;SDS011;53294;47.912;13.526;2023-02-21T03:55:22;3.50;;;1.70;;
66478;SDS011;53294;47.912;13.526;2023-02-21T03:57:49;3.45;;;1.80;;
66478;SDS011;53294;47.912;13.526;2023-02-21T04:00:15;5.15;;;2.17;;
66478;SDS011;53294;47.912;13.526;2023-02-21T04:02:43;2.13;;;1.40;;
66478;SDS011;53294;47.912;13.526;2023-02-21T04:05:10;2.85;;;1.80;;
66478;SDS011;53294;47.912;13.526;2023-02-21T04:07:37;2.85;;;1.77;;
66478;SDS011;53294;47.912;13.526;2023-02-21T04:10:03;3.42;;;1.52;;
66478;SDS011;53294;47.912;13.526;2023-02-21T04:12:30;3.53;;;1.67;;
66478;SDS011;53294;47.912;13.526;2023-02-21T04:14:57;4.85;;;2.05;;
66478;SDS011;53294;47.912;13.526;2023-02-21T04:17:24;2.83;;;1.92;;
66478;SDS011;53294;47.912;13.526;2023-02-21T04:19:51;3.00;;;1.42;;
66478;SDS011;53294;47.912;13.526;2023-02-21T04:22:17;3.50;;;1.80;;
66478;SDS011;53294;47.912;13.526;2023-02-21T04:24:44;3.72;;;1.83;;
66478;SDS011;53294;47.912;13.526;2023-02-21T04:27:13;2.35;;;1.50;;
66478;SDS011;53294;47.912;13.526;2023-02-21T04:29:41;5.00;;;1.52;;
66478;SDS011;53294;47.912;13.526;2023-02-21T04:32:08;4.95;;;1.90;;
66478;SDS011;53294;47.912;13.526;2023-02-21T04:34:36;3.83;;;1.77;;
66478;SDS011;53294;47.912;13.526;2023-02-21T04:37:03;3.13;;;1.30;;
66478;SDS011;53294;47.912;13.526;2023-02-21T04:39:29;2.28;;;1.58;;
66478;SDS011;53294;47.912;13.526;2023-02-21T04:41:56;3.70;;;1.50;;
66478;SDS011;53294;47.912;13.526;2023-02-21T04:44:23;2.17;;;1.40;;
66478;SDS011;53294;47.912;13.526;2023-02-21T04:46:50;5.75;;;1.70;;
66478;SDS011;53294;47.912;13.526;2023-02-21T04:49:16;4.10;;;1.60;;
66478;SDS011;53294;47.912;13.526;2023-02-21T04:51:44;3.42;;;1.40;;
66478;SDS011;53294;47.912;13.526;2023-02-21T04:54:10;4.18;;;1.77;;
66478;SDS011;53294;47.912;13.526;2023-02-21T04:56:39;10.90;;;5.75;;
66478;SDS011;53294;47.912;13.526;2023-02-21T04:59:06;4.43;;;2.40;;
66478;SDS011;53294;47.912;13.526;2023-02-21T05:01:32;5.65;;;1.60;;
66478;SDS011;53294;47.912;13.526;2023-02-21T05:03:59;3.55;;;1.60;;
66478;SDS011;53294;47.912;13.526;2023-02-21T05:06:26;2.47;;;1.70;;
66478;SDS011;53294;47.912;13.526;2023-02-21T05:08:55;3.58;;;1.67;;
66478;SDS011;53294;47.912;13.526;2023-02-21T05:11:23;2.92;;;1.75;;
66478;SDS011;53294;47.912;13.526;2023-02-21T05:13:50;2.50;;;1.50;;
66478;SDS011;53294;47.912;13.526;2023-02-21T05:16:17;3.17;;;1.58;;
66478;SDS011;53294;47.912;13.526;2023-02-21T05:18:45;3.83;;;1.58;;
66478;SDS011;53294;47.912;13.526;2023-02-21T05:21:13;2.88;;;1.40;;
66478;SDS011;53294;47.912;13.526;2023-02-21T05:23:42;2.55;;;1.30;;
66478;SDS011;53294;47.912;13.526;2023-02-21T05:26:22;2.63;;;1.55;;
66478;SDS011;53294;47.912;13.526;2023-02-21T05:28:51;2.85;;;1.60;;
66478;SDS011;53294;47.912;13.526;2023-02-21T05:31:18;3.03;;;1.77;;
66478;SDS011;53294;47.912;13.526;2023-02-21T05:33:45;2.92;;;1.67;;
66478;SDS011;53294;47.912;13.526;2023-02-21T05:36:11;4.20;;;1.88;;
66478;SDS011;53294;47.912;13.526;2023-02-21T05:38:45;2.88;;;1.55;;
66478;SDS011;53294;47.912;13.526;2023-02-21T05:41:14;2.65;;;1.60;;
66478;SDS011;53294;47.912;13.526;2023-02-21T05:43:43;2.97;;;1.70;;
66478;SDS011;53294;47.912;13.526;2023-02-21T05:46:24;2.67;;;1.83;;
66478;SDS011;53294;47.912;13.526;2023-02-21T05:48:55;3.03;;;1.50;;
66478;SDS011;53294;47.912;13.526;2023-02-21T05:51:23;2.97;;;1.40;;
66478;SDS011;53294;47.912;13.526;2023-02-21T05:53:50;2.80;;;1.50;;
66478;SDS011;53294;47.912;13.526;2023-02-21T05:56:17;3.00;;;1.70;;
66478;SDS011;53294;47.912;13.526;2023-02-21T05:58:45;4.22;;;1.95;;
66478;SDS011;53294;47.912;13.526;2023-02-21T06:01:12;2.75;;;1.65;;
66478;SDS011;53294;47.912;13.526;2023-02-21T06:03:39;4.35;;;2.00;;
66478;SDS011;53294;47.912;13.526;2023-02-21T06:06:06;3.17;;;1.95;;
66478;SDS011;53294;47.912;13.526;2023-02-21T06:08:40;4.15;;;1.90;;
66478;SDS011;53294;47.912;13.526;2023-02-21T06:11:08;2.80;;;1.80;;
66478;SDS011;53294;47.912;13.526;2023-02-21T06:13:35;4.43;;;2.35;;
66478;SDS011;53294;47.912;13.526;2023-02-21T06:16:02;3.28;;;1.90;;
66478;SDS011;53294;47.912;13.526;2023-02-21T06:18:28;2.67;;;1.70;;
66478;SDS011;53294;47.912;13.526;2023-02-21T06:20:55;3.35;;;1.70;;
66478;SDS011;53294;47.912;13.526;2023-02-21T06:23:22;3.63;;;1.65;;
66478;SDS011;53294;47.912;13.526;2023-02-21T06:25:48;5.32;;;1.95;;
66478;SDS011;53294;47.912;13.526;2023-02-21T06:28:15;2.90;;;1.55;;
66478;SDS011;53294;47.912;13.526;2023-02-21T06:30:41;3.60;;;1.85;;
66478;SDS011;53294;47.912;13.526;2023-02-21T06:33:08;2.95;;;1.80;;
66478;SDS011;53294;47.912;13.526;2023-02-21T06:35:35;3.47;;;2.00;;
66478;SDS011;53294;47.912;13.526;2023-02-21T06:38:02;3.72;;;1.77;;
66478;SDS011;53294;47.912;13.526;2023-02-21T06:40:28;5.63;;;2.30;;
66478;SDS011;53294;47.912;13.526;2023-02-21T06:42:55;4.22;;;1.83;;
66478;SDS011;53294;47.912;13.526;2023-02-21T06:45:21;3.38;;;1.70;;
66478;SDS011;53294;47.912;13.526;2023-02-21T06:47:48;3.40;;;2.00;;
66478;SDS011;53294;47.912;13.526;2023-02-21T06:50:15;5.70;;;2.55;;
66478;SDS011;53294;47.912;13.526;2023-02-21T06:52:42;4.15;;;2.67;;
66478;SDS011;53294;47.912;13.526;2023-02-21T06:55:08;5.10;;;2.17;;
66478;SDS011;53294;47.912;13.526;2023-02-21T06:57:35;4.05;;;2.15;;
66478;SDS011;53294;47.912;13.526;2023-02-21T07:00:02;3.72;;;1.90;;
66478;SDS011;53294;47.912;13.526;2023-02-21T07:02:30;8.32;;;5.00;;
66478;SDS011;53294;47.912;13.526;2023-02-21T07:04:57;5.13;;;2.63;;
66478;SDS011;53294;47.912;13.526;2023-02-21T07:07:24;4.68;;;2.28;;
66478;SDS011;53294;47.912;13.526;2023-02-21T07:09:50;3.72;;;2.15;;
66478;SDS011;53294;47.912;13.526;2023-02-21T07:12:17;6.13;;;2.42;;
66478;SDS011;53294;47.912;13.526;2023-02-21T07:14:43;6.00;;;3.17;;
66478;SDS011;53294;47.912;13.526;2023-02-21T07:17:10;10.70;;;6.38;;
66478;SDS011;53294;47.912;13.526;2023-02-21T07:19:37;9.15;;;5.20;;
66478;SDS011;53294;47.912;13.526;2023-02-21T07:22:03;8.30;;;4.53;;
66478;SDS011;53294;47.912;13.526;2023-02-21T07:24:30;7.43;;;4.07;;
66478;SDS011;53294;47.912;13.526;2023-02-21T07:26:57;5.32;;;3.15;;
66478;SDS011;53294;47.912;13.526;2023-02-21T07:29:24;7.05;;;4.22;;
66478;SDS011;53294;47.912;13.526;2023-02-21T07:31:51;6.47;;;4.07;;
66478;SDS011;53294;47.912;13.526;2023-02-21T07:34:18;4.70;;;2.72;;
66478;SDS011;53294;47.912;13.526;2023-02-21T07:36:45;6.00;;;3.10;;
66478;SDS011;53294;47.912;13.526;2023-02-21T07:39:12;8.48;;;3.78;;
66478;SDS011;53294;47.912;13.526;2023-02-21T07:41:38;11.50;;;4.70;;
66478;SDS011;53294;47.912;13.526;2023-02-21T07:44:05;6.57;;;3.35;;
66478;SDS011;53294;47.912;13.526;2023-02-21T07:46:33;4.90;;;2.60;;
66478;SDS011;53294;47.912;13.526;2023-02-21T07:49:00;4.88;;;2.40;;
66478;SDS011;53294;47.912;13.526;2023-02-21T07:51:27;7.18;;;3.38;;
66478;SDS011;53294;47.912;13.526;2023-02-21T07:53:55;5.55;;;3.17;;
66478;SDS011;53294;47.912;13.526;2023-02-21T07:56:22;6.68;;;2.55;;
66478;SDS011;53294;47.912;13.526;2023-02-21T07:58:49;5.60;;;2.72;;
66478;SDS011;53294;47.912;13.526;2023-02-21T08:01:16;5.65;;;2.67;;
66478;SDS011;53294;47.912;13.526;2023-02-21T08:03:43;6.78;;;3.50;;
66478;SDS011;53294;47.912;13.526;2023-02-21T08:06:09;7.53;;;2.88;;
66478;SDS011;53294;47.912;13.526;2023-02-21T08:08:36;3.75;;;2.10;;
66478;SDS011;53294;47.912;13.526;2023-02-21T08:11:03;5.35;;;3.17;;
66478;SDS011;53294;47.912;13.526;2023-02-21T08:13:30;5.68;;;2.25;;
66478;SDS011;53294;47.912;13.526;2023-02-21T08:15:57;3.63;;;1.70;;
66478;SDS011;53294;47.912;13.526;2023-02-21T08:18:23;4.97;;;2.00;;
66478;SDS011;53294;47.912;13.526;2023-02-21T08:20:51;5.07;;;1.90;;
66478;SDS011;53294;47.912;13.526;2023-02-21T08:23:19;3.53;;;1.88;;
66478;SDS011;53294;47.912;13.526;2023-02-21T08:25:46;6.10;;;2.35;;
66478;SDS011;53294;47.912;13.526;2023-02-21T08:28:14;3.53;;;1.88;;
66478;SDS011;53294;47.912;13.526;2023-02-21T08:30:41;4.05;;;2.00;;
66478;SDS011;53294;47.912;13.526;2023-02-21T08:33:08;4.25;;;1.90;;
66478;SDS011;53294;47.912;13.526;2023-02-21T08:35:35;3.10;;;1.88;;
66478;SDS011;53294;47.912;13.526;2023-02-21T08:38:01;3.38;;;1.52;;
66478;SDS011;53294;47.912;13.526;2023-02-21T08:40:30;9.00;;;1.70;;
66478;SDS011;53294;47.912;13.526;2023-02-21T08:42:57;6.63;;;1.70;;
66478;SDS011;53294;47.912;13.526;2023-02-21T08:45:26;3.17;;;1.55;;
66478;SDS011;53294;47.912;13.526;2023-02-21T08:47:53;3.17;;;1.75;;
66478;SDS011;53294;47.912;13.526;2023-02-21T08:50:21;4.85;;;2.15;;
66478;SDS011;53294;47.912;13.526;2023-02-21T08:52:49;4.05;;;1.88;;
66478;SDS011;53294;47.912;13.526;2023-02-21T08:55:16;3.40;;;2.10;;
66478;SDS011;53294;47.912;13.526;2023-02-21T08:57:47;3.50;;;1.75;;
66478;SDS011;53294;47.912;13.526;2023-02-21T09:00:14;3.95;;;2.00;;
66478;SDS011;53294;47.912;13.526;2023-02-21T09:02:42;5.28;;;2.30;;
66478;SDS011;53294;47.912;13.526;2023-02-21T09:05:11;5.63;;;2.20;;
66478;SDS011;53294;47.912;13.526;2023-02-21T09:07:40;4.53;;;2.00;;
66478;SDS011;53294;47.912;13.526;2023-02-21T09:10:08;4.57;;;2.30;;
66478;SDS011;53294;47.912;13.526;2023-02-21T09:12:36;4.32;;;2.20;;
66478;SDS011;53294;47.912;13.526;2023-02-21T09:15:04;5.32;;;2.30;;
66478;SDS011;53294;47.912;13.526;2023-02-21T09:17:31;4.30;;;2.15;;
66478;SDS011;53294;47.912;13.526;2023-02-21T09:20:00;4.63;;;2.30;;
66478;SDS011;53294;47.912;13.526;2023-02-21T09:22:30;4.07;;;2.25;;
66478;SDS011;53294;47.912;13.526;2023-02-21T09:24:57;5.78;;;2.47;;
66478;SDS011;53294;47.912;13.526;2023-02-21T09:27:24;7.03;;;2.03;;
66478;SDS011;53294;47.912;13.526;2023-02-21T09:30:13;3.85;;;2.00;;
66478;SDS011;53294;47.912;13.526;2023-02-21T09:32:46;5.28;;;2.10;;
66478;SDS011;53294;47.912;13.526;2023-02-21T09:35:13;5.63;;;1.95;;
66478;SDS011;53294;47.912;13.526;2023-02-21T09:37:41;2.83;;;1.60;;
66478;SDS011;53294;47.912;13.526;2023-02-21T09:40:11;3.78;;;1.90;;
66478;SDS011;53294;47.912;13.526;2023-02-21T09:42:50;4.45;;;1.80;;
66478;SDS011;53294;47.912;13.526;2023-02-21T09:45:19;3.67;;;1.88;;
66478;SDS011;53294;47.912;13.526;2023-02-21T09:47:48;3.85;;;1.88;;
66478;SDS011;53294;47.912;13.526;2023-02-21T09:50:20;4.50;;;2.15;;
66478;SDS011;53294;47.912;13.526;2023-02-21T09:52:54;4.00;;;2.03;;
66478;SDS011;53294;47.912;13.526;2023-02-21T09:55:27;3.33;;;1.75;;
66478;SDS011;53294;47.912;13.526;2023-02-21T09:57:57;4.75;;;1.88;;
66478;SDS011;53294;47.912;13.526;2023-02-21T10:00:35;4.47;;;1.75;;
66478;SDS011;53294;47.912;13.526;2023-02-21T10:03:08;3.78;;;1.75;;
66478;SDS011;53294;47.912;13.526;2023-02-21T10:06:03;3.40;;;1.65;;
66478;SDS011;53294;47.912;13.526;2023-02-21T10:08:46;3.55;;;1.70;;
66478;SDS011;53294;47.912;13.526;2023-02-21T10:11:34;3.65;;;1.63;;
66478;SDS011;53294;47.912;13.526;2023-02-21T10:14:12;4.93;;;2.00;;
66478;SDS011;53294;47.912;13.526;2023-02-21T10:17:04;6.05;;;1.90;;
66478;SDS011;53294;47.912;13.526;2023-02-21T10:19:54;5.28;;;2.10;;
66478;SDS011;53294;47.912;13.526;2023-02-21T10:22:27;3.85;;;1.60;;
66478;SDS011;53294;47.912;13.526;2023-02-21T10:24:59;5.20;;;1.75;;
66478;SDS011;53294;47.912;13.526;2023-02-21T10:27:29;5.95;;;1.80;;
66478;SDS011;53294;47.912;13.526;2023-02-21T10:30:05;5.22;;;1.95;;
66478;SDS011;53294;47.912;13.526;2023-02-21T10:32:35;3.38;;;1.60;;
66478;SDS011;53294;47.912;13.526;2023-02-21T10:35:03;4.18;;;1.65;;
66478;SDS011;53294;47.912;13.526;2023-02-21T10:42:48;4.50;;;1.85;;
66478;SDS011;53294;47.912;13.526;2023-02-21T10:45:19;4.25;;;1.70;;
66478;SDS011;53294;47.912;13.526;2023-02-21T10:48:05;3.30;;;1.70;;
66478;SDS011;53294;47.912;13.526;2023-02-21T10:50:38;3.45;;;1.67;;
66478;SDS011;53294;47.912;13.526;2023-02-21T10:53:24;3.43;;;1.63;;
66478;SDS011;53294;47.912;13.526;2023-02-21T10:58:53;2.65;;;1.50;;
66478;SDS011;53294;47.912;13.526;2023-02-21T11:03:59;3.67;;;1.70;;
66478;SDS011;53294;47.912;13.526;2023-02-21T11:08:56;3.13;;;1.50;;
66478;SDS011;53294;47.912;13.526;2023-02-21T11:11:40;3.25;;;1.50;;
66478;SDS011;53294;47.912;13.526;2023-02-21T11:16:42;5.20;;;1.80;;
66478;SDS011;53294;47.912;13.526;2023-02-21T11:19:13;3.13;;;1.45;;
66478;SDS011;53294;47.912;13.526;2023-02-21T11:21:42;2.50;;;1.30;;
66478;SDS011;53294;47.912;13.526;2023-02-21T11:24:11;4.80;;;1.30;;
66478;SDS011;53294;47.912;13.526;2023-02-21T11:26:48;3.25;;;1.65;;
66478;SDS011;53294;47.912;13.526;2023-02-21T11:29:19;2.90;;;1.33;;
66478;SDS011;53294;47.912;13.526;2023-02-21T11:31:51;3.85;;;1.55;;
66478;SDS011;53294;47.912;13.526;2023-02-21T11:34:19;3.30;;;1.58;;
66478;SDS011;53294;47.912;13.526;2023-02-21T11:36:47;2.63;;;1.33;;
66478;SDS011;53294;47.912;13.526;2023-02-21T11:39:24;2.50;;;1.23;;
66478;SDS011;53294;47.912;13.526;2023-02-21T11:42:01;2.75;;;1.17;;
66478;SDS011;53294;47.912;13.526;2023-02-21T11:44:31;4.30;;;1.55;;
66478;SDS011;53294;47.912;13.526;2023-02-21T11:47:06;3.13;;;1.45;;
66478;SDS011;53294;47.912;13.526;2023-02-21T11:52:09;3.85;;;1.08;;
66478;SDS011;53294;47.912;13.526;2023-02-21T11:54:39;2.83;;;1.40;;
66478;SDS011;53294;47.912;13.526;2023-02-21T11:57:24;2.55;;;1.38;;
66478;SDS011;53294;47.912;13.526;2023-02-21T12:08:21;2.70;;;1.23;;
66478;SDS011;53294;47.912;13.526;2023-02-21T12:10:52;3.00;;;1.35;;
66478;SDS011;53294;47.912;13.526;2023-02-21T12:47:27;2.40;;;1.30;;
66478;SDS011;53294;47.912;13.526;2023-02-21T12:50:05;2.38;;;1.27;;
66478;SDS011;53294;47.912;13.526;2023-02-21T12:52:40;2.20;;;1.17;;
66478;SDS011;53294;47.912;13.526;2023-02-21T12:55:38;3.90;;;1.88;;
66478;SDS011;53294;47.912;13.526;2023-02-21T13:01:14;2.50;;;1.30;;
66478;SDS011;53294;47.912;13.526;2023-02-21T13:03:50;2.90;;;1.38;;
66478;SDS011;53294;47.912;13.526;2023-02-21T13:08:58;3.45;;;1.20;;
66478;SDS011;53294;47.912;13.526;2023-02-21T13:11:41;2.03;;;1.00;;
66478;SDS011;53294;47.912;13.526;2023-02-21T13:14:19;3.53;;;1.30;;
66478;SDS011;53294;47.912;13.526;2023-02-21T13:16:51;2.38;;;1.17;;
66478;SDS011;53294;47.912;13.526;2023-02-21T13:19:18;1.70;;;1.10;;
66478;SDS011;53294;47.912;13.526;2023-02-21T13:24:25;4.57;;;1.08;;
66478;SDS011;53294;47.912;13.526;2023-02-21T13:30:11;2.33;;;1.23;;
66478;SDS011;53294;47.912;13.526;2023-02-21T13:33:02;3.47;;;1.23;;
66478;SDS011;53294;47.912;13.526;2023-02-21T13:35:30;2.53;;;1.15;;
66478;SDS011;53294;47.912;13.526;2023-02-21T13:38:00;3.25;;;1.20;;
66478;SDS011;53294;47.912;13.526;2023-02-21T13:45:50;4.22;;;1.20;;
66478;SDS011;53294;47.912;13.526;2023-02-21T13:48:25;2.03;;;1.20;;
66478;SDS011;53294;47.912;13.526;2023-02-21T13:50:56;3.95;;;1.63;;
66478;SDS011;53294;47.912;13.526;2023-02-21T13:53:29;3.70;;;2.27;;
66478;SDS011;53294;47.912;13.526;2023-02-21T14:00:55;3.83;;;1.60;;
66478;SDS011;53294;47.912;13.526;2023-02-21T14:03:38;4.60;;;1.20;;
66478;SDS011;53294;47.912;13.526;2023-02-21T14:08:35;2.92;;;1.10;;
66478;SDS011;53294;47.912;13.526;2023-02-21T14:13:52;2.17;;;1.15;;
66478;SDS011;53294;47.912;13.526;2023-02-21T14:16:22;2.63;;;1.20;;
66478;SDS011;53294;47.912;13.526;2023-02-21T14:21:24;2.47;;;1.27;;
66478;SDS011;53294;47.912;13.526;2023-02-21T14:23:55;1.73;;;0.98;;
66478;SDS011;53294;47.912;13.526;2023-02-21T14:29:16;3.58;;;1.15;;
66478;SDS011;53294;47.912;13.526;2023-02-21T14:31:54;2.88;;;1.13;;
66478;SDS011;53294;47.912;13.526;2023-02-21T14:40:00;4.07;;;1.70;;
66478;SDS011;53294;47.912;13.526;2023-02-21T14:45:45;3.70;;;1.60;;
66478;SDS011;53294;47.912;13.526;2023-02-21T14:57:05;3.28;;;1.48;;
66478;SDS011;53294;47.912;13.526;2023-02-21T15:05:30;2.97;;;1.50;;
66478;SDS011;53294;47.912;13.526;2023-02-21T15:10:31;3.00;;;1.42;;
66478;SDS011;53294;47.912;13.526;2023-02-21T15:13:04;4.18;;;2.03;;
66478;SDS011;53294;47.912;13.526;2023-02-21T15:15:35;4.68;;;1.85;;
66478;SDS011;53294;47.912;13.526;2023-02-21T15:20:41;3.97;;;1.90;;
66478;SDS011;53294;47.912;13.526;2023-02-21T15:25:58;3.55;;;1.70;;
66478;SDS011;53294;47.912;13.526;2023-02-21T15:28:28;4.50;;;1.50;;
66478;SDS011;53294;47.912;13.526;2023-02-21T15:31:07;2.72;;;0.98;;
66478;SDS011;53294;47.912;13.526;2023-02-21T15:33:36;2.50;;;1.17;;
66478;SDS011;53294;47.912;13.526;2023-02-21T15:36:20;2.85;;;1.00;;
66478;SDS011;53294;47.912;13.526;2023-02-21T15:38:50;7.55;;;3.45;;
66478;SDS011;53294;47.912;13.526;2023-02-21T15:41:25;6.00;;;3.13;;
66478;SDS011;53294;47.912;13.526;2023-02-21T15:49:33;2.35;;;1.17;;
66478;SDS011;53294;47.912;13.526;2023-02-21T15:52:03;4.13;;;1.50;;
66478;SDS011;53294;47.912;13.526;2023-02-21T15:54:34;5.38;;;1.42;;
66478;SDS011;53294;47.912;13.526;2023-02-21T15:59:35;3.05;;;1.00;;
66478;SDS011;53294;47.912;13.526;2023-02-21T16:02:12;2.75;;;1.30;;
66478;SDS011;53294;47.912;13.526;2023-02-21T16:04:45;6.75;;;1.52;;
66478;SDS011;53294;47.912;13.526;2023-02-21T16:07:17;3.03;;;1.30;;
66478;SDS011;53294;47.912;13.526;2023-02-21T16:09:47;3.13;;;1.38;;
66478;SDS011;53294;47.912;13.526;2023-02-21T16:12:34;2.72;;;1.00;;
66478;SDS011;53294;47.912;13.526;2023-02-21T16:15:06;3.33;;;1.25;;
66478;SDS011;53294;47.912;13.526;2023-02-21T16:17:44;1.70;;;1.00;;
66478;SDS011;53294;47.912;13.526;2023-02-21T16:20:18;2.15;;;1.20;;
66478;SDS011;53294;47.912;13.526;2023-02-21T16:22:50;2.47;;;1.40;;
66478;SDS011;53294;47.912;13.526;2023-02-21T16:28:43;2.67;;;1.08;;
66478;SDS011;53294;47.912;13.526;2023-02-21T16:31:14;2.40;;;1.08;;
66478;SDS011;53294;47.912;13.526;2023-02-21T16:33:43;2.47;;;1.50;;
66478;SDS011;53294;47.912;13.526;2023-02-21T16:36:17;2.92;;;1.20;;
66478;SDS011;53294;47.912;13.526;2023-02-21T16:38:47;2.72;;;1.30;;
66478;SDS011;53294;47.912;13.526;2023-02-21T16:41:14;4.50;;;1.42;;
66478;SDS011;53294;47.912;13.526;2023-02-21T16:43:41;4.70;;;1.90;;
66478;SDS011;53294;47.912;13.526;2023-02-21T16:46:08;5.03;;;2.08;;
66478;SDS011;53294;47.912;13.526;2023-02-21T16:48:35;4.88;;;2.15;;
66478;SDS011;53294;47.912;13.526;2023-02-21T16:51:03;4.28;;;1.90;;
66478;SDS011;53294;47.912;13.526;2023-02-21T16:53:32;3.42;;;2.00;;
66478;SDS011;53294;47.912;13.526;2023-02-21T16:55:59;4.15;;;1.85;;
66478;SDS011;53294;47.912;13.526;2023-02-21T16:58:28;4.22;;;2.03;;
66478;SDS011;53294;47.912;13.526;2023-02-21T17:00:58;4.32;;;2.17;;
66478;SDS011;53294;47.912;13.526;2023-02-21T17:03:27;3.75;;;2.13;;
66478;SDS011;53294;47.912;13.526;2023-02-21T17:05:54;4.85;;;2.40;;
66478;SDS011;53294;47.912;13.526;2023-02-21T17:08:23;5.15;;;2.63;;
66478;SDS011;53294;47.912;13.526;2023-02-21T17:10:50;6.65;;;2.83;;
66478;SDS011;53294;47.912;13.526;2023-02-21T17:13:17;6.43;;;2.30;;
66478;SDS011;53294;47.912;13.526;2023-02-21T17:15:44;6.03;;;2.72;;
66478;SDS011;53294;47.912;13.526;2023-02-21T17:18:13;3.72;;;1.85;;
66478;SDS011;53294;47.912;13.526;2023-02-21T17:20:39;5.70;;;2.92;;
66478;SDS011;53294;47.912;13.526;2023-02-21T17:23:06;7.60;;;3.13;;
66478;SDS011;53294;47.912;13.526;2023-02-21T17:25:33;5.25;;;3.20;;
66478;SDS011;53294;47.912;13.526;2023-02-21T17:28:02;4.85;;;2.42;;
66478;SDS011;53294;47.912;13.526;2023-02-21T17:30:29;3.95;;;2.20;;
66478;SDS011;53294;47.912;13.526;2023-02-21T17:32:56;4.80;;;2.00;;
66478;SDS011;53294;47.912;13.526;2023-02-21T17:35:23;4.28;;;2.00;;
66478;SDS011;53294;47.912;13.526;2023-02-21T17:37:50;3.78;;;1.58;;
66478;SDS011;53294;47.912;13.526;2023-02-21T17:40:17;3.88;;;1.88;;
66478;SDS011;53294;47.912;13.526;2023-02-21T17:42:45;3.55;;;2.05;;
66478;SDS011;53294;47.912;13.526;2023-02-21T17:45:13;2.78;;;1.90;;
66478;SDS011;53294;47.912;13.526;2023-02-21T17:47:42;5.05;;;2.88;;
66478;SDS011;53294;47.912;13.526;2023-02-21T17:50:09;5.82;;;3.33;;
66478;SDS011;53294;47.912;13.526;2023-02-21T17:52:36;6.55;;;3.35;;
66478;SDS011;53294;47.912;13.526;2023-02-21T17:55:03;8.18;;;4.03;;
66478;SDS011;53294;47.912;13.526;2023-02-21T17:57:36;5.53;;;2.70;;
66478;SDS011;53294;47.912;13.526;2023-02-21T18:00:07;7.20;;;3.63;;
66478;SDS011;53294;47.912;13.526;2023-02-21T18:02:38;5.38;;;3.45;;
66478;SDS011;53294;47.912;13.526;2023-02-21T18:05:05;5.50;;;3.55;;